sensor_id;sensor_type;location;lat;lon;timestamp;temperature;humidity
19646;DHT22;9971;52.446;13.452;2023-08-12T00:18:18;25.60;99.90
19646;DHT22;9971;52.446;13.452;2023-08-12T01:22:33;25.50;99.90
19646;DHT22;9971;52.446;13.452;2023-08-12T01:27:36;25.50;99.90
19646;DHT22;9971;52.446;13.452;2023-08-12T01:32:49;25.50;99.90
19646;DHT22;9971;52.446;13.452;2023-08-12T01:37:48;25.50;99.90
19646;DHT22;9971;52.446;13.452;2023-08-12T01:43:02;25.50;99.90
19646;DHT22;9971;52.446;13.452;2023-08-12T02:09:31;25.50;99.90
19646;DHT22;9971;52.446;13.452;2023-08-12T02:14:34;25.50;99.90
19646;DHT22;9971;52.446;13.452;2023-08-12T02:19:36;25.40;99.90
19646;DHT22;9971;52.446;13.452;2023-08-12T03:23:39;25.30;99.90
19646;DHT22;9971;52.446;13.452;2023-08-12T03:28:41;25.30;99.90
19646;DHT22;9971;52.446;13.452;2023-08-12T03:33:44;25.30;99.90
19646;DHT22;9971;52.446;13.452;2023-08-12T04:00:11;25.30;99.90
19646;DHT22;9971;52.446;13.452;2023-08-12T04:05:22;25.30;99.90
19646;DHT22;9971;52.446;13.452;2023-08-12T04:31:58;25.30;99.90
19646;DHT22;9971;52.446;13.452;2023-08-12T06:19:25;25.10;99.90
19646;DHT22;9971;52.446;13.452;2023-08-12T06:24:27;25.20;99.90
19646;DHT22;9971;52.446;13.452;2023-08-12T06:29:30;25.10;99.90
19646;DHT22;9971;52.446;13.452;2023-08-12T06:34:33;25.10;99.90
19646;DHT22;9971;52.446;13.452;2023-08-12T06:39:35;25.10;99.90
19646;DHT22;9971;52.446;13.452;2023-08-12T06:44:39;25.10;99.90
19646;DHT22;9971;52.446;13.452;2023-08-12T06:49:42;25.10;99.90
19646;DHT22;9971;52.446;13.452;2023-08-12T06:54:44;25.10;99.90
19646;DHT22;9971;52.446;13.452;2023-08-12T06:59:50;25.00;99.90
19646;DHT22;9971;52.446;13.452;2023-08-12T07:04:53;25.10;99.90
19646;DHT22;9971;52.446;13.452;2023-08-12T07:09:55;25.10;99.90
19646;DHT22;9971;52.446;13.452;2023-08-12T07:15:00;25.10;99.90
19646;DHT22;9971;52.446;13.452;2023-08-12T07:20:03;25.10;99.90
19646;DHT22;9971;52.446;13.452;2023-08-12T07:25:06;25.10;99.90
19646;DHT22;9971;52.446;13.452;2023-08-12T07:30:11;25.10;99.90
19646;DHT22;9971;52.446;13.452;2023-08-12T07:35:14;25.10;99.90
19646;DHT22;9971;52.446;13.452;2023-08-12T07:40:16;25.10;99.90
19646;DHT22;9971;52.446;13.452;2023-08-12T07:45:18;25.10;99.90
19646;DHT22;9971;52.446;13.452;2023-08-12T07:50:22;25.10;99.90
19646;DHT22;9971;52.446;13.452;2023-08-12T07:55:24;25.10;99.90
19646;DHT22;9971;52.446;13.452;2023-08-12T08:00:27;25.10;99.90
19646;DHT22;9971;52.446;13.452;2023-08-12T08:05:29;25.10;99.90
19646;DHT22;9971;52.446;13.452;2023-08-12T08:53:48;25.30;99.90
19646;DHT22;9971;52.446;13.452;2023-08-12T09:15:02;25.30;99.90
19646;DHT22;9971;52.446;13.452;2023-08-12T09:20:08;25.30;99.90
19646;DHT22;9971;52.446;13.452;2023-08-12T09:25:12;25.30;99.90
19646;DHT22;9971;52.446;13.452;2023-08-12T09:30:17;25.30;99.90
19646;DHT22;9971;52.446;13.452;2023-08-12T09:35:21;25.30;99.90
19646;DHT22;9971;52.446;13.452;2023-08-12T09:40:24;25.30;99.90
19646;DHT22;9971;52.446;13.452;2023-08-12T09:45:26;25.30;99.90
19646;DHT22;9971;52.446;13.452;2023-08-12T09:50:28;25.30;99.90
19646;DHT22;9971;52.446;13.452;2023-08-12T09:55:30;25.30;99.90
19646;DHT22;9971;52.446;13.452;2023-08-12T10:00:32;25.30;99.90
19646;DHT22;9971;52.446;13.452;2023-08-12T10:05:34;25.30;99.90
19646;DHT22;9971;52.446;13.452;2023-08-12T10:10:37;25.30;99.90
19646;DHT22;9971;52.446;13.452;2023-08-12T10:15:39;25.30;99.90
19646;DHT22;9971;52.446;13.452;2023-08-12T10:20:42;25.30;99.90
19646;DHT22;9971;52.446;13.452;2023-08-12T11:09:01;27.70;99.90
19646;DHT22;9971;52.446;13.452;2023-08-12T11:35:51;27.40;99.90
19646;DHT22;9971;52.446;13.452;2023-08-12T11:40:54;27.20;99.90
19646;DHT22;9971;52.446;13.452;2023-08-12T11:45:56;27.10;99.90
19646;DHT22;9971;52.446;13.452;2023-08-12T12:12:34;26.50;99.90
19646;DHT22;9971;52.446;13.452;2023-08-12T12:39:04;26.10;99.90
19646;DHT22;9971;52.446;13.452;2023-08-12T13:05:43;27.10;99.90
19646;DHT22;9971;52.446;13.452;2023-08-12T13:26:49;28.40;99.90
19646;DHT22;9971;52.446;13.452;2023-08-12T13:31:52;28.90;99.90
19646;DHT22;9971;52.446;13.452;2023-08-12T13:58:19;30.20;99.90
19646;DHT22;9971;52.446;13.452;2023-08-12T14:03:28;30.10;99.90
19646;DHT22;9971;52.446;13.452;2023-08-12T14:08:57;30.30;99.90
19646;DHT22;9971;52.446;13.452;2023-08-12T14:14:06;30.80;99.90
19646;DHT22;9971;52.446;13.452;2023-08-12T14:40:49;31.30;99.90
19646;DHT22;9971;52.446;13.452;2023-08-12T15:02:12;31.00;99.90
19646;DHT22;9971;52.446;13.452;2023-08-12T15:07:15;31.30;99.90
19646;DHT22;9971;52.446;13.452;2023-08-12T15:50:02;29.70;99.90
19646;DHT22;9971;52.446;13.452;2023-08-12T15:55:11;29.70;99.90
19646;DHT22;9971;52.446;13.452;2023-08-12T16:00:17;29.70;99.90
19646;DHT22;9971;52.446;13.452;2023-08-12T16:26:56;29.60;99.90
19646;DHT22;9971;52.446;13.452;2023-08-12T16:48:18;29.00;99.90
19646;DHT22;9971;52.446;13.452;2023-08-12T16:53:21;28.90;99.90
19646;DHT22;9971;52.446;13.452;2023-08-12T16:58:23;28.70;99.90
19646;DHT22;9971;52.446;13.452;2023-08-12T17:03:26;28.60;99.90
19646;DHT22;9971;52.446;13.452;2023-08-12T17:08:52;28.50;99.90
19646;DHT22;9971;52.446;13.452;2023-08-12T17:14:01;28.30;99.90
19646;DHT22;9971;52.446;13.452;2023-08-12T17:19:03;28.20;99.90
19646;DHT22;9971;52.446;13.452;2023-08-12T17:24:05;28.00;99.90
19646;DHT22;9971;52.446;13.452;2023-08-12T17:29:08;27.80;99.90
19646;DHT22;9971;52.446;13.452;2023-08-12T17:34:25;27.80;99.90
19646;DHT22;9971;52.446;13.452;2023-08-12T17:55:56;27.40;99.90
19646;DHT22;9971;52.446;13.452;2023-08-12T18:17:05;26.90;99.90
19646;DHT22;9971;52.446;13.452;2023-08-12T18:22:09;26.30;99.90
19646;DHT22;9971;52.446;13.452;2023-08-12T18:27:15;25.10;99.90
19646;DHT22;9971;52.446;13.452;2023-08-12T18:32:23;24.20;99.90
19646;DHT22;9971;52.446;13.452;2023-08-12T18:37:26;23.60;99.90
19646;DHT22;9971;52.446;13.452;2023-08-12T18:42:28;23.20;99.90
19646;DHT22;9971;52.446;13.452;2023-08-12T18:47:31;23.00;99.90
19646;DHT22;9971;52.446;13.452;2023-08-12T18:52:34;22.80;99.90
19646;DHT22;9971;52.446;13.452;2023-08-12T18:57:37;22.60;99.90
19646;DHT22;9971;52.446;13.452;2023-08-12T19:02:39;22.40;99.90
19646;DHT22;9971;52.446;13.452;2023-08-12T19:07:42;22.30;99.90
19646;DHT22;9971;52.446;13.452;2023-08-12T19:12:45;22.20;99.90
19646;DHT22;9971;52.446;13.452;2023-08-12T19:17:48;22.20;99.90
19646;DHT22;9971;52.446;13.452;2023-08-12T19:22:51;22.10;99.90
19646;DHT22;9971;52.446;13.452;2023-08-12T19:27:53;22.00;99.90
19646;DHT22;9971;52.446;13.452;2023-08-12T19:32:56;21.90;99.90
19646;DHT22;9971;52.446;13.452;2023-08-12T19:37:59;21.90;99.90
19646;DHT22;9971;52.446;13.452;2023-08-12T19:43:03;21.90;99.90
19646;DHT22;9971;52.446;13.452;2023-08-12T19:48:05;21.90;99.90
19646;DHT22;9971;52.446;13.452;2023-08-12T19:53:08;21.90;99.90
19646;DHT22;9971;52.446;13.452;2023-08-12T19:58:10;21.80;99.90
19646;DHT22;9971;52.446;13.452;2023-08-12T20:03:13;21.80;99.90
19646;DHT22;9971;52.446;13.452;2023-08-12T20:08:16;21.90;99.90
19646;DHT22;9971;52.446;13.452;2023-08-12T20:13:18;21.80;99.90
19646;DHT22;9971;52.446;13.452;2023-08-12T20:18:20;21.90;99.90
19646;DHT22;9971;52.446;13.452;2023-08-12T20:23:26;21.90;99.90
19646;DHT22;9971;52.446;13.452;2023-08-12T20:28:29;21.80;99.90
19646;DHT22;9971;52.446;13.452;2023-08-12T20:33:32;21.30;99.90
19646;DHT22;9971;52.446;13.452;2023-08-12T20:38:35;21.60;99.90
19646;DHT22;9971;52.446;13.452;2023-08-12T20:43:37;21.60;99.90
19646;DHT22;9971;52.446;13.452;2023-08-12T20:48:39;21.50;99.90
19646;DHT22;9971;52.446;13.452;2023-08-12T20:53:42;21.50;99.90
19646;DHT22;9971;52.446;13.452;2023-08-12T20:58:45;21.20;99.90
19646;DHT22;9971;52.446;13.452;2023-08-12T21:03:47;21.50;99.90
19646;DHT22;9971;52.446;13.452;2023-08-12T21:08:49;21.40;99.90
19646;DHT22;9971;52.446;13.452;2023-08-12T21:13:52;21.50;99.90
19646;DHT22;9971;52.446;13.452;2023-08-12T21:18:55;21.40;99.90
19646;DHT22;9971;52.446;13.452;2023-08-12T21:24:02;21.40;99.90
19646;DHT22;9971;52.446;13.452;2023-08-12T21:29:05;21.30;99.90
19646;DHT22;9971;52.446;13.452;2023-08-12T21:34:08;21.30;99.90
19646;DHT22;9971;52.446;13.452;2023-08-12T21:39:11;21.30;99.90
19646;DHT22;9971;52.446;13.452;2023-08-12T21:44:14;21.10;99.90
19646;DHT22;9971;52.446;13.452;2023-08-12T21:49:16;21.10;99.90
19646;DHT22;9971;52.446;13.452;2023-08-12T21:54:19;21.00;99.90
19646;DHT22;9971;52.446;13.452;2023-08-12T21:59:22;21.00;99.90
19646;DHT22;9971;52.446;13.452;2023-08-12T22:04:25;21.00;99.90
19646;DHT22;9971;52.446;13.452;2023-08-12T22:09:28;21.00;99.90
19646;DHT22;9971;52.446;13.452;2023-08-12T22:14:30;21.00;99.90
19646;DHT22;9971;52.446;13.452;2023-08-12T22:19:33;21.00;99.90
19646;DHT22;9971;52.446;13.452;2023-08-12T22:24:34;21.00;99.90
19646;DHT22;9971;52.446;13.452;2023-08-12T22:29:37;21.00;99.90
19646;DHT22;9971;52.446;13.452;2023-08-12T22:34:40;21.00;99.90
19646;DHT22;9971;52.446;13.452;2023-08-12T22:39:43;21.00;99.90
19646;DHT22;9971;52.446;13.452;2023-08-12T22:44:45;21.00;99.90
19646;DHT22;9971;52.446;13.452;2023-08-12T22:49:48;21.00;99.90
19646;DHT22;9971;52.446;13.452;2023-08-12T22:54:50;21.10;99.90
19646;DHT22;9971;52.446;13.452;2023-08-12T22:59:53;21.10;99.90
19646;DHT22;9971;52.446;13.452;2023-08-12T23:04:55;21.00;99.90
19646;DHT22;9971;52.446;13.452;2023-08-12T23:09:58;21.00;99.90
19646;DHT22;9971;52.446;13.452;2023-08-12T23:15:01;21.10;99.90
19646;DHT22;9971;52.446;13.452;2023-08-12T23:20:06;21.10;99.90
19646;DHT22;9971;52.446;13.452;2023-08-12T23:25:09;21.00;99.90
19646;DHT22;9971;52.446;13.452;2023-08-12T23:30:12;21.00;99.90
19646;DHT22;9971;52.446;13.452;2023-08-12T23:35:14;21.00;99.90
19646;DHT22;9971;52.446;13.452;2023-08-12T23:40:18;21.00;99.90
19646;DHT22;9971;52.446;13.452;2023-08-12T23:45:21;20.90;99.90
19646;DHT22;9971;52.446;13.452;2023-08-12T23:50:24;20.90;99.90
19646;DHT22;9971;52.446;13.452;2023-08-12T23:55:26;20.90;99.90
